Mesa Verde National Park, Colorado
Current Conditions -  °F | °C
As of 12:53 PM on Friday 21 Nov 2014 (Local Time) from KCEZ Reporting Station
Clear Clear  
Wind Chill: 10°   Ceiling: Unl
Heat Index: 10°   Visibility: 10mi
Dew Point: -8°   Wind: 3mph
Humidity: 28%   Direction: 200°SSW
Pressure: 30.03"   Gusts: NA
Location:  37.1877°N, 108.492°W
Report Text: KCEZ 211953Z AUTO 20003KT 10SM CLR 10/M08 A3003 RMK AO2 SLP158 T01001078
Loading
Personal Weather Stations






























Interactive Weather Map New forecast layout! Learn more

10-Day Weather Forecast

Advertisements
Track Severe Weather on mobile